createdAt,value
2023-11-18T00:02:15.085Z,2.25
2023-11-18T00:05:17.073Z,1.30
2023-11-18T00:08:18.811Z,1.33
2023-11-18T00:11:20.608Z,1.25
2023-11-18T00:14:22.771Z,0.70
2023-11-18T00:17:24.524Z,2.13
2023-11-18T00:20:26.443Z,1.30
2023-11-18T00:23:30.309Z,1.88
2023-11-18T00:26:32.045Z,0.77
2023-11-18T00:29:35.244Z,1.83
2023-11-18T00:32:37.535Z,1.75
2023-11-18T00:35:39.449Z,2.53
2023-11-18T00:38:42.450Z,1.55
2023-11-18T00:41:44.217Z,1.08
2023-11-18T00:44:46.006Z,2.43
2023-11-18T00:47:47.779Z,1.23
2023-11-18T00:50:49.910Z,1.25
2023-11-18T00:53:51.684Z,1.27
2023-11-18T00:56:53.621Z,1.00
2023-11-18T00:59:55.493Z,1.80
2023-11-18T01:02:58.047Z,1.15
2023-11-18T01:06:00.474Z,1.33
2023-11-18T01:09:02.255Z,2.25
2023-11-18T01:12:08.278Z,1.50
2023-11-18T01:15:11.764Z,2.10
2023-11-18T01:18:13.651Z,9.63
2023-11-18T01:21:18.505Z,2.13
2023-11-18T01:24:20.327Z,1.40
2023-11-18T01:27:23.976Z,1.90
2023-11-18T01:30:27.999Z,2.67
2023-11-18T01:33:29.910Z,1.75
2023-11-18T01:36:32.135Z,1.15
2023-11-18T01:39:37.081Z,1.15
2023-11-18T01:42:38.976Z,0.93
2023-11-18T01:45:42.002Z,1.50
2023-11-18T01:48:43.891Z,1.00
2023-11-18T01:51:46.993Z,2.47
2023-11-18T01:54:49.940Z,5.50
2023-11-18T01:57:52.329Z,1.90
2023-11-18T02:00:54.357Z,1.53
2023-11-18T02:03:56.196Z,2.17
2023-11-18T02:06:58.144Z,1.25
2023-11-18T02:10:00.124Z,1.70
2023-11-18T02:13:13.377Z,2.17
2023-11-18T02:16:15.564Z,0.43
2023-11-18T02:19:20.989Z,2.15
2023-11-18T02:22:23.261Z,2.10
2023-11-18T02:25:28.293Z,1.63
2023-11-18T02:28:30.304Z,2.40
2023-11-18T02:31:35.178Z,1.37
2023-11-18T02:34:39.991Z,2.58
2023-11-18T02:37:43.559Z,2.10
2023-11-18T02:40:46.819Z,2.67
2023-11-18T02:43:48.775Z,1.95
2023-11-18T02:46:50.653Z,1.20
2023-11-18T02:49:57.365Z,1.15
2023-11-18T02:52:59.775Z,1.80
2023-11-18T02:56:04.212Z,2.25
2023-11-18T02:59:09.248Z,1.95
2023-11-18T03:02:12.347Z,2.77
2023-11-18T03:05:16.026Z,1.67
2023-11-18T03:08:17.754Z,3.05
2023-11-18T03:11:22.535Z,2.22
2023-11-18T03:14:24.518Z,1.13
2023-11-18T03:17:26.447Z,1.53
2023-11-18T03:20:28.864Z,1.15
2023-11-18T03:23:30.716Z,2.55
2023-11-18T03:26:33.483Z,1.63
2023-11-18T03:29:35.565Z,2.85
2023-11-18T03:32:37.706Z,2.53
2023-11-18T03:35:39.896Z,2.97
2023-11-18T03:38:41.750Z,2.13
2023-11-18T03:41:45.511Z,1.67
2023-11-18T03:44:48.761Z,2.33
2023-11-18T03:47:51.427Z,2.00
2023-11-18T03:50:54.992Z,1.70
2023-11-18T03:53:56.772Z,1.17
2023-11-18T03:56:58.839Z,1.17
2023-11-18T04:00:00.731Z,2.95
2023-11-18T04:03:02.529Z,2.10
2023-11-18T04:06:04.692Z,0.98
2023-11-18T04:09:07.103Z,1.55
2023-11-18T04:12:09.206Z,6.00
2023-11-18T04:15:12.172Z,1.98
2023-11-18T04:18:14.075Z,1.20
2023-11-18T04:21:16.657Z,2.22
2023-11-18T04:24:18.466Z,2.80
2023-11-18T04:27:20.253Z,3.78
2023-11-18T04:30:22.092Z,1.85
2023-11-18T04:33:25.909Z,2.00
2023-11-18T04:36:27.895Z,1.85
2023-11-18T04:39:32.460Z,1.83
2023-11-18T04:42:34.202Z,2.85
2023-11-18T04:45:35.916Z,2.10
2023-11-18T04:48:41.585Z,2.57
2023-11-18T04:51:44.229Z,2.83
2023-11-18T04:54:49.182Z,3.40
2023-11-18T04:57:51.036Z,2.35
2023-11-18T05:00:52.776Z,2.88
2023-11-18T05:03:55.275Z,2.67
2023-11-18T05:06:57.052Z,2.40
2023-11-18T05:09:58.843Z,3.08
2023-11-18T05:13:00.804Z,1.08
2023-11-18T05:16:04.177Z,3.13
2023-11-18T05:19:06.544Z,1.87
2023-11-18T05:22:08.338Z,2.33
2023-11-18T05:25:11.227Z,2.55
2023-11-18T05:28:13.264Z,2.75
2023-11-18T05:31:15.062Z,2.70
2023-11-18T05:34:16.902Z,1.50
2023-11-18T05:37:19.421Z,1.90
2023-11-18T05:40:21.341Z,2.42
2023-11-18T05:43:30.512Z,2.30
2023-11-18T05:46:33.718Z,6.90
2023-11-18T05:49:36.092Z,2.70
2023-11-18T05:53:04.972Z,3.65
2023-11-18T05:56:07.718Z,1.40
2023-11-18T05:59:09.556Z,1.70
2023-11-18T06:02:18.844Z,1.73
2023-11-18T06:05:20.683Z,1.40
2023-11-18T06:08:24.105Z,2.35
2023-11-18T06:11:25.973Z,4.75
2023-11-18T06:14:27.827Z,6.35
2023-11-18T06:17:29.739Z,7.22
2023-11-18T06:20:31.769Z,12.73
2023-11-18T06:23:34.108Z,8.10
2023-11-18T06:26:38.945Z,11.20
2023-11-18T06:29:41.602Z,11.13
2023-11-18T06:32:43.436Z,9.75
2023-11-18T06:35:46.216Z,16.57
2023-11-18T06:38:50.163Z,4.57
2023-11-18T06:41:52.766Z,4.78
2023-11-18T06:44:54.978Z,4.10
2023-11-18T06:47:56.860Z,3.65
2023-11-18T06:50:58.683Z,3.77
2023-11-18T06:54:00.447Z,4.05
2023-11-18T06:57:02.589Z,3.15
2023-11-18T07:00:09.672Z,2.90
2023-11-18T07:03:13.357Z,2.72
2023-11-18T07:06:23.159Z,3.53
2023-11-18T07:09:27.186Z,2.88
2023-11-18T07:12:29.032Z,2.85
2023-11-18T07:15:30.960Z,2.83
2023-11-18T07:18:34.967Z,2.90
2023-11-18T07:21:37.403Z,2.77
2023-11-18T07:24:39.208Z,4.15
2023-11-18T07:27:40.940Z,3.17
2023-11-18T07:30:43.790Z,5.88
2023-11-18T07:33:50.027Z,6.18
2023-11-18T07:36:53.245Z,2.57
2023-11-18T07:39:56.351Z,2.78
2023-11-18T07:42:58.265Z,5.07
2023-11-18T07:46:00.245Z,7.43
2023-11-18T07:49:03.115Z,5.28
2023-11-18T07:52:05.012Z,4.17
2023-11-18T07:55:07.081Z,2.92
2023-11-18T07:58:12.295Z,2.53
2023-11-18T08:01:14.351Z,1.90
2023-11-18T08:04:16.257Z,3.15
2023-11-18T08:07:18.107Z,1.73
2023-11-18T08:10:20.804Z,2.30
2023-11-18T08:13:23.014Z,2.85
2023-11-18T08:16:25.938Z,6.68
2023-11-18T08:19:27.768Z,2.45
2023-11-18T08:22:29.457Z,2.97
2023-11-18T08:25:31.385Z,3.67
2023-11-18T08:28:33.118Z,2.22
2023-11-18T08:31:35.150Z,2.33
2023-11-18T08:34:38.825Z,2.33
2023-11-18T08:37:41.506Z,2.70
2023-11-18T08:40:44.083Z,3.00
2023-11-18T08:43:48.050Z,3.38
2023-11-18T08:46:50.366Z,3.13
2023-11-18T08:49:52.111Z,3.00
2023-11-18T08:52:59.302Z,3.67
2023-11-18T08:56:03.821Z,2.65
2023-11-18T08:59:09.913Z,3.08
2023-11-18T09:02:16.393Z,2.38
2023-11-18T09:05:21.063Z,2.85
2023-11-18T09:08:23.218Z,3.13
2023-11-18T09:11:28.322Z,4.63
2023-11-18T09:14:30.206Z,3.20
2023-11-18T09:17:32.090Z,5.47
2023-11-18T09:20:33.975Z,2.97
2023-11-18T09:23:35.902Z,3.93
2023-11-18T09:26:37.754Z,8.45
2023-11-18T09:29:39.557Z,7.95
2023-11-18T09:32:43.432Z,6.35
2023-11-18T09:35:45.251Z,5.40
2023-11-18T09:38:50.872Z,11.43
2023-11-18T09:41:53.005Z,8.02
2023-11-18T09:44:56.294Z,6.13
2023-11-18T09:48:00.569Z,6.47
2023-11-18T09:51:03.900Z,5.13
2023-11-18T09:54:11.391Z,3.37
2023-11-18T09:57:20.401Z,3.92
2023-11-18T10:00:27.337Z,5.50
2023-11-18T10:03:30.457Z,3.58
2023-11-18T10:06:35.183Z,4.90
2023-11-18T10:09:40.606Z,4.23
2023-11-18T10:12:45.934Z,4.10
2023-11-18T10:15:51.892Z,8.05
2023-11-18T10:18:55.052Z,6.35
2023-11-18T10:21:58.047Z,5.70
2023-11-18T10:25:02.385Z,9.10
2023-11-18T10:28:04.843Z,10.85
2023-11-18T10:31:08.862Z,7.97
2023-11-18T10:34:12.772Z,10.70
2023-11-18T10:37:14.727Z,13.68
2023-11-18T10:40:16.866Z,9.53
2023-11-18T10:43:18.626Z,9.02
2023-11-18T10:46:22.232Z,9.20
2023-11-18T10:49:23.986Z,16.92
2023-11-18T10:52:32.927Z,13.68
2023-11-18T10:55:41.437Z,9.87
2023-11-18T10:58:43.473Z,10.32
2023-11-18T11:01:46.266Z,8.07
2023-11-18T11:04:50.284Z,7.35
2023-11-18T11:07:53.013Z,10.05
2023-11-18T11:10:57.121Z,4.60
2023-11-18T11:14:01.941Z,4.10
2023-11-18T11:17:15.390Z,8.48
2023-11-18T11:20:25.041Z,6.25
2023-11-18T11:23:44.877Z,6.22
2023-11-18T11:26:52.703Z,3.00
2023-11-18T11:30:00.644Z,2.88
2023-11-18T11:33:13.317Z,1.40
2023-11-18T11:36:18.810Z,2.20
2023-11-18T11:39:27.231Z,2.38
2023-11-18T11:42:30.380Z,2.37
2023-11-18T11:45:32.576Z,1.92
2023-11-18T11:48:37.415Z,2.30
2023-11-18T11:51:49.761Z,3.95
2023-11-18T11:55:14.817Z,3.22
2023-11-18T11:58:34.990Z,5.87
2023-11-18T12:01:38.773Z,6.82
2023-11-18T12:04:43.109Z,4.82
2023-11-18T12:07:47.559Z,2.17
2023-11-18T12:10:53.728Z,3.38
2023-11-18T12:14:10.793Z,8.73
2023-11-18T12:17:16.165Z,4.78
2023-11-18T12:20:37.274Z,2.42
2023-11-18T12:23:58.932Z,2.78
2023-11-18T12:27:04.095Z,5.65
2023-11-18T12:30:30.455Z,8.83
2023-11-18T12:33:51.008Z,6.82
2023-11-18T12:37:12.091Z,4.00
2023-11-18T12:40:32.893Z,2.95
2023-11-18T12:43:51.397Z,3.15
2023-11-18T12:46:58.237Z,4.00
2023-11-18T12:50:01.705Z,5.40
2023-11-18T12:53:04.059Z,3.85
2023-11-18T12:56:06.742Z,3.67
2023-11-18T12:59:10.836Z,5.63
2023-11-18T13:02:21.198Z,4.00
2023-11-18T13:05:23.345Z,2.17
2023-11-18T13:08:25.631Z,6.63
2023-11-18T13:11:28.114Z,3.20
2023-11-18T13:14:31.411Z,3.08
2023-11-18T13:17:33.425Z,5.43
2023-11-18T13:20:37.029Z,1.45
2023-11-18T13:23:38.830Z,3.67
2023-11-18T13:26:40.638Z,5.32
2023-11-18T13:29:46.526Z,6.35
2023-11-18T13:32:50.698Z,4.33
2023-11-18T13:35:52.999Z,3.80
2023-11-18T13:38:54.832Z,13.95
2023-11-18T13:41:56.570Z,6.70
2023-11-18T13:45:01.650Z,3.97
2023-11-18T13:48:03.598Z,3.13
2023-11-18T13:51:09.303Z,3.58
2023-11-18T13:54:11.286Z,7.07
2023-11-18T13:57:13.340Z,6.35
2023-11-18T14:00:16.259Z,4.78
2023-11-18T14:03:18.921Z,7.43
2023-11-18T14:06:24.024Z,4.32
2023-11-18T14:09:26.316Z,3.22
2023-11-18T14:12:28.952Z,4.85
2023-11-18T14:15:31.632Z,3.28
2023-11-18T14:18:33.473Z,3.33
2023-11-18T14:21:35.307Z,4.60
2023-11-18T14:24:37.075Z,4.53
2023-11-18T14:27:38.938Z,4.45
2023-11-18T14:30:41.310Z,5.07
2023-11-18T14:33:43.221Z,5.10
2023-11-18T14:36:45.930Z,6.03
2023-11-18T14:39:47.738Z,5.47
2023-11-18T14:42:49.583Z,5.55
2023-11-18T14:45:51.569Z,6.88
2023-11-18T14:48:53.415Z,3.47
2023-11-18T14:51:55.203Z,3.53
2023-11-18T14:54:56.970Z,4.35
2023-11-18T14:57:58.766Z,4.07
2023-11-18T15:01:01.565Z,4.03
2023-11-18T15:04:07.123Z,5.57
2023-11-18T15:07:09.138Z,6.47
2023-11-18T15:10:10.899Z,3.08
2023-11-18T15:13:19.223Z,1.67
2023-11-18T15:16:21.121Z,3.10
2023-11-18T15:19:23.032Z,3.03
2023-11-18T15:22:24.838Z,3.28
2023-11-18T15:25:28.161Z,3.60
2023-11-18T15:28:29.923Z,3.95
2023-11-18T15:31:31.705Z,2.75
2023-11-18T15:34:33.511Z,2.17
2023-11-18T15:37:39.453Z,2.72
2023-11-18T15:40:41.278Z,2.30
2023-11-18T15:43:43.239Z,1.60
2023-11-18T15:46:48.994Z,2.83
2023-11-18T15:49:51.424Z,1.47
2023-11-18T15:52:53.537Z,3.75
2023-11-18T15:55:55.404Z,4.85
2023-11-18T15:58:57.237Z,2.88
2023-11-18T16:01:59.139Z,4.90
2023-11-18T16:05:01.005Z,9.23
2023-11-18T16:08:03.525Z,5.13
2023-11-18T16:11:06.261Z,6.03
2023-11-18T16:14:08.482Z,2.88
2023-11-18T16:17:10.348Z,5.35
2023-11-18T16:20:18.609Z,4.10
2023-11-18T16:23:22.628Z,6.70
2023-11-18T16:26:24.592Z,5.63
2023-11-18T16:29:26.542Z,6.22
2023-11-18T16:32:28.586Z,6.30
2023-11-18T16:35:31.243Z,5.50
2023-11-18T16:38:34.419Z,6.43
2023-11-18T16:41:43.577Z,6.20
2023-11-18T16:44:49.361Z,5.47
2023-11-18T16:47:52.227Z,6.03
2023-11-18T16:50:55.014Z,10.20
2023-11-18T16:53:57.051Z,6.53
2023-11-18T16:56:58.768Z,4.68
2023-11-18T17:00:00.758Z,4.20
2023-11-18T17:03:03.356Z,3.80
2023-11-18T17:06:05.833Z,5.20
2023-11-18T17:09:07.853Z,5.45
2023-11-18T17:12:10.724Z,5.30
2023-11-18T17:15:16.624Z,5.45
2023-11-18T17:18:18.489Z,5.80
2023-11-18T17:21:20.699Z,4.13
2023-11-18T17:24:22.695Z,12.57
2023-11-18T17:27:25.697Z,5.10
2023-11-18T17:30:33.131Z,7.60
2023-11-18T17:33:36.044Z,5.18
2023-11-18T17:36:37.892Z,9.00
2023-11-18T17:39:40.093Z,5.45
2023-11-18T17:42:42.617Z,8.43
2023-11-18T17:45:44.459Z,5.47
2023-11-18T17:48:46.595Z,5.70
2023-11-18T17:51:48.675Z,6.57
2023-11-18T17:54:50.722Z,3.33
2023-11-18T17:57:53.571Z,6.13
2023-11-18T18:00:55.559Z,4.20
2023-11-18T18:03:57.422Z,6.05
2023-11-18T18:06:59.460Z,6.73
2023-11-18T18:10:01.746Z,7.10
2023-11-18T18:13:03.507Z,7.22
2023-11-18T18:16:05.665Z,5.82
2023-11-18T18:19:07.825Z,4.60
2023-11-18T18:22:11.456Z,5.20
2023-11-18T18:25:13.609Z,6.72
2023-11-18T18:28:15.912Z,4.90
2023-11-18T18:31:17.958Z,8.32
2023-11-18T18:34:19.945Z,7.25
2023-11-18T18:37:23.411Z,6.67
2023-11-18T18:40:25.366Z,4.70
2023-11-18T18:43:27.135Z,6.78
2023-11-18T18:46:28.899Z,6.53
2023-11-18T18:49:30.962Z,5.07
2023-11-18T18:52:32.711Z,9.07
2023-11-18T18:55:35.019Z,5.25
2023-11-18T18:58:36.767Z,5.85
2023-11-18T19:01:39.453Z,6.85
2023-11-18T19:04:41.621Z,5.97
2023-11-18T19:07:43.609Z,6.50
2023-11-18T19:10:45.444Z,8.75
2023-11-18T19:13:47.314Z,5.00
2023-11-18T19:16:49.277Z,6.88
2023-11-18T19:19:51.406Z,7.10
2023-11-18T19:22:53.169Z,6.07
2023-11-18T19:25:55.184Z,4.85
2023-11-18T19:28:56.949Z,4.65
2023-11-18T19:31:58.834Z,6.10
2023-11-18T19:35:01.051Z,5.80
2023-11-18T19:38:07.950Z,10.17
2023-11-18T19:41:10.297Z,10.52
2023-11-18T19:44:13.019Z,7.13
2023-11-18T19:47:15.189Z,5.15
2023-11-18T19:50:27.052Z,5.05
2023-11-18T19:53:30.148Z,7.17
2023-11-18T19:56:32.431Z,5.25
2023-11-18T19:59:34.347Z,5.38
2023-11-18T20:02:37.123Z,6.47
2023-11-18T20:05:39.393Z,5.45
2023-11-18T20:08:41.327Z,7.67
2023-11-18T20:11:50.041Z,4.70
2023-11-18T20:14:52.329Z,6.07
2023-11-18T20:17:57.924Z,4.65
2023-11-18T20:20:59.916Z,6.78
2023-11-18T20:24:03.221Z,6.00
2023-11-18T20:27:05.001Z,5.03
2023-11-18T20:30:07.646Z,5.10
2023-11-18T20:33:11.137Z,5.38
2023-11-18T20:36:13.086Z,9.60
2023-11-18T20:39:20.808Z,5.33
2023-11-18T20:42:23.026Z,9.88
2023-11-18T20:45:25.218Z,6.68
2023-11-18T20:48:27.423Z,6.47
2023-11-18T20:51:29.162Z,7.03
2023-11-18T20:54:31.205Z,7.53
2023-11-18T20:57:33.280Z,6.00
2023-11-18T21:00:36.988Z,5.00
2023-11-18T21:03:39.078Z,4.32
2023-11-18T21:06:40.959Z,4.78
2023-11-18T21:09:43.059Z,5.83
2023-11-18T21:12:44.968Z,5.43
2023-11-18T21:15:46.818Z,7.47
2023-11-18T21:18:49.391Z,9.30
2023-11-18T21:21:51.415Z,7.45
2023-11-18T21:24:55.346Z,6.40
2023-11-18T21:28:04.003Z,7.38
2023-11-18T21:31:08.039Z,5.25
2023-11-18T21:34:10.735Z,7.07
2023-11-18T21:37:14.117Z,5.38
2023-11-18T21:40:18.168Z,7.87
2023-11-18T21:43:19.998Z,9.52
2023-11-18T21:46:24.578Z,8.60
2023-11-18T21:49:27.443Z,9.15
2023-11-18T21:52:29.519Z,5.35
2023-11-18T21:55:31.295Z,6.37
2023-11-18T21:58:33.343Z,4.45
2023-11-18T22:01:35.518Z,4.55
2023-11-18T22:04:37.336Z,5.63
2023-11-18T22:07:39.181Z,5.10
2023-11-18T22:10:40.953Z,9.17
2023-11-18T22:13:42.711Z,7.95
2023-11-18T22:16:44.458Z,5.85
2023-11-18T22:19:46.930Z,6.53
2023-11-18T22:22:50.195Z,4.70
2023-11-18T22:25:52.301Z,7.70
2023-11-18T22:28:55.091Z,8.70
2023-11-18T22:31:56.902Z,5.43
2023-11-18T22:35:01.928Z,12.45
2023-11-18T22:38:03.788Z,8.63
2023-11-18T22:41:06.427Z,5.83
2023-11-18T22:44:08.603Z,7.47
2023-11-18T22:47:10.401Z,5.82
2023-11-18T22:50:13.934Z,9.48
2023-11-18T22:53:18.203Z,4.78
2023-11-18T22:56:20.928Z,6.33
2023-11-18T22:59:23.920Z,5.10
2023-11-18T23:02:25.859Z,8.85
2023-11-18T23:05:27.686Z,7.22
2023-11-18T23:08:29.441Z,5.80
2023-11-18T23:11:32.289Z,5.17
2023-11-18T23:14:34.127Z,6.78
2023-11-18T23:17:35.954Z,8.18
2023-11-18T23:20:38.207Z,7.32
2023-11-18T23:23:40.265Z,7.38
2023-11-18T23:26:42.666Z,20.73
2023-11-18T23:29:44.374Z,8.55
2023-11-18T23:32:46.132Z,7.75
2023-11-18T23:35:47.961Z,7.85
2023-11-18T23:38:50.009Z,10.13
2023-11-18T23:41:51.763Z,6.00
2023-11-18T23:44:54.630Z,8.52
2023-11-18T23:47:56.456Z,8.45
2023-11-18T23:50:58.611Z,7.70
2023-11-18T23:54:00.424Z,5.57
2023-11-18T23:57:02.216Z,10.20
